sensor_id;sensor_type;location;lat;lon;timestamp;temperature;humidity
14884;DHT22;7534;50.762;7.000;2023-12-20T04:50:09;6.10;92.10
14884;DHT22;7534;50.762;7.000;2023-12-20T04:52:36;6.10;91.60
14884;DHT22;7534;50.762;7.000;2023-12-20T04:55:03;6.20;91.50
14884;DHT22;7534;50.762;7.000;2023-12-20T04:57:32;6.20;91.20
14884;DHT22;7534;50.762;7.000;2023-12-20T04:59:58;6.20;91.20
14884;DHT22;7534;50.762;7.000;2023-12-20T05:02:30;6.20;91.20
14884;DHT22;7534;50.762;7.000;2023-12-20T05:04:56;6.20;90.60
14884;DHT22;7534;50.762;7.000;2023-12-20T05:07:21;6.20;90.60
14884;DHT22;7534;50.762;7.000;2023-12-20T05:09:49;6.10;90.40
14884;DHT22;7534;50.762;7.000;2023-12-20T05:12:18;5.90;90.50
14884;DHT22;7534;50.762;7.000;2023-12-20T05:14:48;5.80;90.70
14884;DHT22;7534;50.762;7.000;2023-12-20T05:17:17;5.60;91.30
14884;DHT22;7534;50.762;7.000;2023-12-20T05:19:49;5.60;92.00
14884;DHT22;7534;50.762;7.000;2023-12-20T05:22:19;5.50;92.00
14884;DHT22;7534;50.762;7.000;2023-12-20T05:24:47;5.30;92.30
14884;DHT22;7534;50.762;7.000;2023-12-20T05:27:14;5.30;93.00
14884;DHT22;7534;50.762;7.000;2023-12-20T05:29:42;5.20;93.40
14884;DHT22;7534;50.762;7.000;2023-12-20T05:32:07;5.30;93.60
14884;DHT22;7534;50.762;7.000;2023-12-20T05:34:33;5.40;93.10
14884;DHT22;7534;50.762;7.000;2023-12-20T05:36:59;5.30;93.50
14884;DHT22;7534;50.762;7.000;2023-12-20T05:39:24;5.30;94.10
14884;DHT22;7534;50.762;7.000;2023-12-20T05:41:51;5.30;94.00
14884;DHT22;7534;50.762;7.000;2023-12-20T05:44:16;5.40;93.30
14884;DHT22;7534;50.762;7.000;2023-12-20T05:46:42;5.40;93.00
14884;DHT22;7534;50.762;7.000;2023-12-20T05:49:08;5.20;93.00
14884;DHT22;7534;50.762;7.000;2023-12-20T05:51:33;5.20;93.00
14884;DHT22;7534;50.762;7.000;2023-12-20T05:53:59;5.20;93.40
14884;DHT22;7534;50.762;7.000;2023-12-20T05:56:25;5.30;93.50
14884;DHT22;7534;50.762;7.000;2023-12-20T05:58:50;5.30;93.50
14884;DHT22;7534;50.762;7.000;2023-12-20T06:01:16;5.40;93.60
14884;DHT22;7534;50.762;7.000;2023-12-20T06:03:44;5.50;93.40
14884;DHT22;7534;50.762;7.000;2023-12-20T06:06:11;5.60;92.70
14884;DHT22;7534;50.762;7.000;2023-12-20T06:08:38;5.60;92.20
14884;DHT22;7534;50.762;7.000;2023-12-20T06:11:03;5.50;92.10
14884;DHT22;7534;50.762;7.000;2023-12-20T06:13:31;5.50;92.50
14884;DHT22;7534;50.762;7.000;2023-12-20T06:15:57;5.40;92.70
14884;DHT22;7534;50.762;7.000;2023-12-20T06:18:23;5.40;93.10
14884;DHT22;7534;50.762;7.000;2023-12-20T06:20:50;5.50;93.70
14884;DHT22;7534;50.762;7.000;2023-12-20T06:23:15;5.50;93.20
14884;DHT22;7534;50.762;7.000;2023-12-20T06:25:41;5.60;92.90
14884;DHT22;7534;50.762;7.000;2023-12-20T06:28:07;5.60;93.00
14884;DHT22;7534;50.762;7.000;2023-12-20T06:30:34;5.70;92.90
14884;DHT22;7534;50.762;7.000;2023-12-20T06:32:59;5.80;92.10
14884;DHT22;7534;50.762;7.000;2023-12-20T06:35:28;5.80;91.60
14884;DHT22;7534;50.762;7.000;2023-12-20T06:37:53;5.90;91.40
14884;DHT22;7534;50.762;7.000;2023-12-20T06:40:19;6.00;90.80
14884;DHT22;7534;50.762;7.000;2023-12-20T06:42:46;6.00;90.60
14884;DHT22;7534;50.762;7.000;2023-12-20T06:45:12;5.90;91.00
14884;DHT22;7534;50.762;7.000;2023-12-20T06:47:38;6.00;90.70
14884;DHT22;7534;50.762;7.000;2023-12-20T06:50:04;6.00;90.80
14884;DHT22;7534;50.762;7.000;2023-12-20T06:52:30;6.10;90.10
14884;DHT22;7534;50.762;7.000;2023-12-20T06:54:56;6.20;89.90
14884;DHT22;7534;50.762;7.000;2023-12-20T06:57:22;6.30;89.00
14884;DHT22;7534;50.762;7.000;2023-12-20T06:59:47;6.30;88.60
14884;DHT22;7534;50.762;7.000;2023-12-20T07:02:13;6.20;89.00
14884;DHT22;7534;50.762;7.000;2023-12-20T07:04:39;6.20;89.30
14884;DHT22;7534;50.762;7.000;2023-12-20T07:07:05;6.20;88.40
14884;DHT22;7534;50.762;7.000;2023-12-20T07:09:32;6.20;88.90
14884;DHT22;7534;50.762;7.000;2023-12-20T07:11:58;6.20;89.20
14884;DHT22;7534;50.762;7.000;2023-12-20T07:14:24;6.20;88.60
14884;DHT22;7534;50.762;7.000;2023-12-20T07:16:52;6.20;88.60
14884;DHT22;7534;50.762;7.000;2023-12-20T07:19:17;6.20;88.60
14884;DHT22;7534;50.762;7.000;2023-12-20T07:21:43;6.20;88.70
14884;DHT22;7534;50.762;7.000;2023-12-20T07:24:13;6.30;87.70
14884;DHT22;7534;50.762;7.000;2023-12-20T07:26:41;6.30;88.00
14884;DHT22;7534;50.762;7.000;2023-12-20T07:29:08;6.40;87.00
14884;DHT22;7534;50.762;7.000;2023-12-20T07:31:34;6.40;87.30
14884;DHT22;7534;50.762;7.000;2023-12-20T07:34:00;6.40;86.40
14884;DHT22;7534;50.762;7.000;2023-12-20T07:36:26;6.40;86.40
14884;DHT22;7534;50.762;7.000;2023-12-20T07:38:51;6.40;86.20
14884;DHT22;7534;50.762;7.000;2023-12-20T07:41:17;6.40;86.10
14884;DHT22;7534;50.762;7.000;2023-12-20T07:43:47;6.40;86.20
14884;DHT22;7534;50.762;7.000;2023-12-20T07:46:12;6.50;86.20
14884;DHT22;7534;50.762;7.000;2023-12-20T07:48:38;6.50;85.80
14884;DHT22;7534;50.762;7.000;2023-12-20T07:51:04;6.50;85.50
14884;DHT22;7534;50.762;7.000;2023-12-20T07:53:35;6.60;85.10
14884;DHT22;7534;50.762;7.000;2023-12-20T07:56:00;6.50;85.00
14884;DHT22;7534;50.762;7.000;2023-12-20T07:58:26;6.50;85.30
14884;DHT22;7534;50.762;7.000;2023-12-20T08:00:52;6.60;84.20
14884;DHT22;7534;50.762;7.000;2023-12-20T08:03:17;6.60;84.20
14884;DHT22;7534;50.762;7.000;2023-12-20T08:05:43;6.70;84.00
14884;DHT22;7534;50.762;7.000;2023-12-20T08:08:09;6.70;84.40
14884;DHT22;7534;50.762;7.000;2023-12-20T08:10:35;6.60;85.00
14884;DHT22;7534;50.762;7.000;2023-12-20T08:13:01;6.60;85.00
14884;DHT22;7534;50.762;7.000;2023-12-20T08:15:26;6.60;84.80
14884;DHT22;7534;50.762;7.000;2023-12-20T08:17:52;6.70;84.40
14884;DHT22;7534;50.762;7.000;2023-12-20T08:20:18;6.80;83.50
14884;DHT22;7534;50.762;7.000;2023-12-20T08:22:47;6.80;83.40
14884;DHT22;7534;50.762;7.000;2023-12-20T08:25:12;6.80;83.30
14884;DHT22;7534;50.762;7.000;2023-12-20T08:27:45;6.80;83.90
14884;DHT22;7534;50.762;7.000;2023-12-20T08:30:12;6.90;82.90
14884;DHT22;7534;50.762;7.000;2023-12-20T08:32:39;6.80;83.10
14884;DHT22;7534;50.762;7.000;2023-12-20T08:35:05;6.80;83.60
14884;DHT22;7534;50.762;7.000;2023-12-20T08:37:31;6.90;83.00
14884;DHT22;7534;50.762;7.000;2023-12-20T08:39:58;6.90;83.10
14884;DHT22;7534;50.762;7.000;2023-12-20T08:42:23;6.80;82.80
14884;DHT22;7534;50.762;7.000;2023-12-20T08:44:51;6.60;83.40
14884;DHT22;7534;50.762;7.000;2023-12-20T08:47:17;6.60;83.30
14884;DHT22;7534;50.762;7.000;2023-12-20T08:49:44;6.50;83.50
14884;DHT22;7534;50.762;7.000;2023-12-20T08:52:09;6.60;83.30
14884;DHT22;7534;50.762;7.000;2023-12-20T08:54:35;6.60;83.10
14884;DHT22;7534;50.762;7.000;2023-12-20T08:57:01;6.70;83.30
14884;DHT22;7534;50.762;7.000;2023-12-20T08:59:26;6.70;83.20
14884;DHT22;7534;50.762;7.000;2023-12-20T09:01:55;6.80;82.80
14884;DHT22;7534;50.762;7.000;2023-12-20T09:04:21;7.00;82.10
14884;DHT22;7534;50.762;7.000;2023-12-20T09:06:47;7.40;80.10
14884;DHT22;7534;50.762;7.000;2023-12-20T09:09:12;7.70;78.90
14884;DHT22;7534;50.762;7.000;2023-12-20T09:11:41;7.70;78.40
14884;DHT22;7534;50.762;7.000;2023-12-20T09:14:07;7.70;78.50
14884;DHT22;7534;50.762;7.000;2023-12-20T09:16:33;7.60;78.30
14884;DHT22;7534;50.762;7.000;2023-12-20T09:19:00;7.50;79.00
14884;DHT22;7534;50.762;7.000;2023-12-20T09:21:26;7.60;78.90
14884;DHT22;7534;50.762;7.000;2023-12-20T09:23:52;7.70;78.60
14884;DHT22;7534;50.762;7.000;2023-12-20T09:26:19;7.90;78.00
14884;DHT22;7534;50.762;7.000;2023-12-20T09:28:46;8.00;77.60
14884;DHT22;7534;50.762;7.000;2023-12-20T09:31:23;8.00;77.80
14884;DHT22;7534;50.762;7.000;2023-12-20T09:33:49;8.10;77.30
14884;DHT22;7534;50.762;7.000;2023-12-20T09:36:18;8.00;77.10
14884;DHT22;7534;50.762;7.000;2023-12-20T09:38:45;7.90;77.80
14884;DHT22;7534;50.762;7.000;2023-12-20T09:41:10;7.80;78.20
14884;DHT22;7534;50.762;7.000;2023-12-20T09:43:38;7.80;78.90
14884;DHT22;7534;50.762;7.000;2023-12-20T09:46:06;7.70;79.10
14884;DHT22;7534;50.762;7.000;2023-12-20T09:48:36;7.70;79.00
14884;DHT22;7534;50.762;7.000;2023-12-20T09:51:15;7.70;78.90
14884;DHT22;7534;50.762;7.000;2023-12-20T09:53:49;7.70;79.20
14884;DHT22;7534;50.762;7.000;2023-12-20T09:56:18;7.60;79.20
14884;DHT22;7534;50.762;7.000;2023-12-20T09:58:44;7.60;79.80
14884;DHT22;7534;50.762;7.000;2023-12-20T10:01:14;7.60;79.40
14884;DHT22;7534;50.762;7.000;2023-12-20T10:03:53;7.60;79.80
14884;DHT22;7534;50.762;7.000;2023-12-20T10:06:29;7.60;79.40
14884;DHT22;7534;50.762;7.000;2023-12-20T10:08:56;7.60;79.50
14884;DHT22;7534;50.762;7.000;2023-12-20T10:11:24;7.60;79.60
14884;DHT22;7534;50.762;7.000;2023-12-20T10:13:52;7.60;79.80
14884;DHT22;7534;50.762;7.000;2023-12-20T10:16:45;7.60;79.50
14884;DHT22;7534;50.762;7.000;2023-12-20T10:19:12;7.60;79.60
14884;DHT22;7534;50.762;7.000;2023-12-20T10:21:42;7.60;79.50
14884;DHT22;7534;50.762;7.000;2023-12-20T10:24:08;7.60;79.40
14884;DHT22;7534;50.762;7.000;2023-12-20T10:26:34;7.70;79.60
14884;DHT22;7534;50.762;7.000;2023-12-20T10:29:01;7.80;78.90
14884;DHT22;7534;50.762;7.000;2023-12-20T10:31:31;7.80;79.20
14884;DHT22;7534;50.762;7.000;2023-12-20T10:33:59;7.80;78.80
14884;DHT22;7534;50.762;7.000;2023-12-20T10:36:31;7.80;79.20
14884;DHT22;7534;50.762;7.000;2023-12-20T10:39:00;7.90;79.10
14884;DHT22;7534;50.762;7.000;2023-12-20T10:41:32;8.00;78.30
14884;DHT22;7534;50.762;7.000;2023-12-20T10:44:03;8.00;78.60
14884;DHT22;7534;50.762;7.000;2023-12-20T10:46:33;8.10;78.00
14884;DHT22;7534;50.762;7.000;2023-12-20T10:49:06;8.10;78.00
14884;DHT22;7534;50.762;7.000;2023-12-20T10:51:35;8.10;78.50
14884;DHT22;7534;50.762;7.000;2023-12-20T10:54:25;8.10;78.10
14884;DHT22;7534;50.762;7.000;2023-12-20T10:56:52;8.10;78.20
14884;DHT22;7534;50.762;7.000;2023-12-20T11:02:29;8.10;78.10
14884;DHT22;7534;50.762;7.000;2023-12-20T11:08:09;8.10;78.10
14884;DHT22;7534;50.762;7.000;2023-12-20T11:14:02;8.10;78.00
14884;DHT22;7534;50.762;7.000;2023-12-20T11:16:32;8.10;78.90
14884;DHT22;7534;50.762;7.000;2023-12-20T11:18:58;8.10;78.60
14884;DHT22;7534;50.762;7.000;2023-12-20T11:21:35;8.10;77.90
14884;DHT22;7534;50.762;7.000;2023-12-20T11:24:15;8.20;78.10
14884;DHT22;7534;50.762;7.000;2023-12-20T11:26:49;8.20;78.00
14884;DHT22;7534;50.762;7.000;2023-12-20T11:29:35;8.20;78.10
14884;DHT22;7534;50.762;7.000;2023-12-20T11:35:17;8.10;78.20
14884;DHT22;7534;50.762;7.000;2023-12-20T11:37:46;8.00;78.40
14884;DHT22;7534;50.762;7.000;2023-12-20T11:40:18;8.00;79.40
14884;DHT22;7534;50.762;7.000;2023-12-20T11:42:45;7.90;79.30
14884;DHT22;7534;50.762;7.000;2023-12-20T11:45:19;7.90;78.90
14884;DHT22;7534;50.762;7.000;2023-12-20T11:47:48;7.90;79.10
14884;DHT22;7534;50.762;7.000;2023-12-20T11:50:20;7.90;79.50
14884;DHT22;7534;50.762;7.000;2023-12-20T11:52:48;8.00;79.50
14884;DHT22;7534;50.762;7.000;2023-12-20T11:55:17;8.10;78.70
14884;DHT22;7534;50.762;7.000;2023-12-20T11:57:46;8.20;78.30
14884;DHT22;7534;50.762;7.000;2023-12-20T12:00:13;8.30;77.90
14884;DHT22;7534;50.762;7.000;2023-12-20T12:02:39;8.40;77.30
14884;DHT22;7534;50.762;7.000;2023-12-20T12:05:06;8.60;77.20
14884;DHT22;7534;50.762;7.000;2023-12-20T12:07:35;8.80;76.90
14884;DHT22;7534;50.762;7.000;2023-12-20T12:10:02;9.10;76.10
14884;DHT22;7534;50.762;7.000;2023-12-20T12:12:34;9.30;74.10
14884;DHT22;7534;50.762;7.000;2023-12-20T12:15:21;9.30;74.20
14884;DHT22;7534;50.762;7.000;2023-12-20T12:18:01;9.30;73.90
14884;DHT22;7534;50.762;7.000;2023-12-20T12:20:30;9.10;73.80
14884;DHT22;7534;50.762;7.000;2023-12-20T12:23:06;8.90;75.00
14884;DHT22;7534;50.762;7.000;2023-12-20T12:25:39;8.80;75.30
14884;DHT22;7534;50.762;7.000;2023-12-20T12:28:18;8.60;75.60
14884;DHT22;7534;50.762;7.000;2023-12-20T12:31:06;8.60;76.90
14884;DHT22;7534;50.762;7.000;2023-12-20T12:33:35;8.50;77.20
14884;DHT22;7534;50.762;7.000;2023-12-20T12:36:03;8.50;77.30
14884;DHT22;7534;50.762;7.000;2023-12-20T12:38:30;8.50;77.10
14884;DHT22;7534;50.762;7.000;2023-12-20T12:40:56;8.50;77.20
14884;DHT22;7534;50.762;7.000;2023-12-20T12:43:23;8.40;77.40
14884;DHT22;7534;50.762;7.000;2023-12-20T12:45:52;8.40;77.60
14884;DHT22;7534;50.762;7.000;2023-12-20T12:48:19;8.40;77.70
14884;DHT22;7534;50.762;7.000;2023-12-20T12:50:46;8.30;78.00
14884;DHT22;7534;50.762;7.000;2023-12-20T12:53:11;8.30;78.40
14884;DHT22;7534;50.762;7.000;2023-12-20T12:55:37;8.20;78.60
14884;DHT22;7534;50.762;7.000;2023-12-20T12:58:03;8.20;78.60
14884;DHT22;7534;50.762;7.000;2023-12-20T13:00:32;8.20;78.60
14884;DHT22;7534;50.762;7.000;2023-12-20T13:02:58;8.20;79.40
14884;DHT22;7534;50.762;7.000;2023-12-20T13:05:24;8.10;79.40
14884;DHT22;7534;50.762;7.000;2023-12-20T13:07:49;8.10;79.20
14884;DHT22;7534;50.762;7.000;2023-12-20T13:10:17;8.10;79.30
14884;DHT22;7534;50.762;7.000;2023-12-20T13:12:43;8.10;79.10
14884;DHT22;7534;50.762;7.000;2023-12-20T13:15:09;8.10;78.70
14884;DHT22;7534;50.762;7.000;2023-12-20T13:17:35;8.20;79.20
14884;DHT22;7534;50.762;7.000;2023-12-20T13:20:01;8.20;78.90
14884;DHT22;7534;50.762;7.000;2023-12-20T13:22:28;8.30;78.80
14884;DHT22;7534;50.762;7.000;2023-12-20T13:24:55;8.30;79.00
14884;DHT22;7534;50.762;7.000;2023-12-20T13:27:21;8.40;79.10
14884;DHT22;7534;50.762;7.000;2023-12-20T13:29:47;8.30;80.20
14884;DHT22;7534;50.762;7.000;2023-12-20T13:35:21;8.00;82.70
14884;DHT22;7534;50.762;7.000;2023-12-20T14:33:32;7.60;85.10
14884;DHT22;7534;50.762;7.000;2023-12-20T14:36:03;7.60;85.20
14884;DHT22;7534;50.762;7.000;2023-12-20T14:38:31;7.60;85.50
14884;DHT22;7534;50.762;7.000;2023-12-20T14:41:15;7.60;85.70
14884;DHT22;7534;50.762;7.000;2023-12-20T14:43:50;7.60;84.90
14884;DHT22;7534;50.762;7.000;2023-12-20T14:46:41;7.60;85.40
14884;DHT22;7534;50.762;7.000;2023-12-20T14:49:15;7.60;85.10
14884;DHT22;7534;50.762;7.000;2023-12-20T14:52:00;7.60;84.80
14884;DHT22;7534;50.762;7.000;2023-12-20T14:54:56;7.70;84.90
14884;DHT22;7534;50.762;7.000;2023-12-20T14:57:32;7.70;84.80
14884;DHT22;7534;50.762;7.000;2023-12-20T15:00:15;7.70;84.70
14884;DHT22;7534;50.762;7.000;2023-12-20T15:02:43;7.70;84.60
14884;DHT22;7534;50.762;7.000;2023-12-20T15:05:25;7.70;85.10
14884;DHT22;7534;50.762;7.000;2023-12-20T15:08:06;7.70;85.20
14884;DHT22;7534;50.762;7.000;2023-12-20T15:10:41;7.60;85.70
14884;DHT22;7534;50.762;7.000;2023-12-20T15:13:17;7.60;85.90
14884;DHT22;7534;50.762;7.000;2023-12-20T15:16:01;7.60;85.70
14884;DHT22;7534;50.762;7.000;2023-12-20T15:18:45;7.60;86.20
14884;DHT22;7534;50.762;7.000;2023-12-20T15:21:14;7.60;86.10
14884;DHT22;7534;50.762;7.000;2023-12-20T15:24:11;7.50;85.80
14884;DHT22;7534;50.762;7.000;2023-12-20T15:26:46;7.50;86.30
14884;DHT22;7534;50.762;7.000;2023-12-20T15:29:26;7.50;86.70
14884;DHT22;7534;50.762;7.000;2023-12-20T15:32:13;7.50;86.50
14884;DHT22;7534;50.762;7.000;2023-12-20T15:34:49;7.50;86.40
14884;DHT22;7534;50.762;7.000;2023-12-20T15:37:33;7.60;85.90
14884;DHT22;7534;50.762;7.000;2023-12-20T15:40:04;7.60;85.50
14884;DHT22;7534;50.762;7.000;2023-12-20T15:42:33;7.60;85.20
14884;DHT22;7534;50.762;7.000;2023-12-20T15:45:35;7.60;85.30
14884;DHT22;7534;50.762;7.000;2023-12-20T15:48:11;7.60;85.70
14884;DHT22;7534;50.762;7.000;2023-12-20T15:50:43;7.60;85.50
14884;DHT22;7534;50.762;7.000;2023-12-20T15:53:25;7.60;85.50
14884;DHT22;7534;50.762;7.000;2023-12-20T15:56:08;7.60;85.30
14884;DHT22;7534;50.762;7.000;2023-12-20T15:58:44;7.50;85.60
14884;DHT22;7534;50.762;7.000;2023-12-20T16:01:33;7.50;85.50
14884;DHT22;7534;50.762;7.000;2023-12-20T16:04:16;7.50;85.70
14884;DHT22;7534;50.762;7.000;2023-12-20T16:07:01;7.50;85.90
14884;DHT22;7534;50.762;7.000;2023-12-20T16:09:52;7.60;85.60
14884;DHT22;7534;50.762;7.000;2023-12-20T16:12:32;7.60;85.50
14884;DHT22;7534;50.762;7.000;2023-12-20T16:15:04;7.60;85.80
14884;DHT22;7534;50.762;7.000;2023-12-20T16:17:55;7.60;86.10
14884;DHT22;7534;50.762;7.000;2023-12-20T16:20:24;7.60;86.10
14884;DHT22;7534;50.762;7.000;2023-12-20T16:22:52;7.60;85.90
14884;DHT22;7534;50.762;7.000;2023-12-20T16:25:23;7.60;86.30
14884;DHT22;7534;50.762;7.000;2023-12-20T16:28:06;7.60;86.30
14884;DHT22;7534;50.762;7.000;2023-12-20T17:04:59;7.50;86.90
14884;DHT22;7534;50.762;7.000;2023-12-20T17:07:29;7.50;86.90
14884;DHT22;7534;50.762;7.000;2023-12-20T17:09:56;7.40;87.10
14884;DHT22;7534;50.762;7.000;2023-12-20T17:12:21;7.40;87.40
14884;DHT22;7534;50.762;7.000;2023-12-20T17:14:47;7.30;87.60
14884;DHT22;7534;50.762;7.000;2023-12-20T17:17:19;7.30;87.80
14884;DHT22;7534;50.762;7.000;2023-12-20T17:19:45;7.20;88.00
14884;DHT22;7534;50.762;7.000;2023-12-20T17:22:17;7.30;87.90
14884;DHT22;7534;50.762;7.000;2023-12-20T17:24:44;7.40;87.50
14884;DHT22;7534;50.762;7.000;2023-12-20T17:27:09;7.50;86.70
14884;DHT22;7534;50.762;7.000;2023-12-20T17:29:41;7.50;86.80
14884;DHT22;7534;50.762;7.000;2023-12-20T17:32:07;7.60;86.30
14884;DHT22;7534;50.762;7.000;2023-12-20T17:34:32;7.60;86.00
14884;DHT22;7534;50.762;7.000;2023-12-20T17:36:59;7.70;85.70
14884;DHT22;7534;50.762;7.000;2023-12-20T17:39:26;7.70;85.90
14884;DHT22;7534;50.762;7.000;2023-12-20T17:41:55;7.70;85.50
14884;DHT22;7534;50.762;7.000;2023-12-20T17:44:21;7.80;84.90
14884;DHT22;7534;50.762;7.000;2023-12-20T17:46:50;7.90;84.90
14884;DHT22;7534;50.762;7.000;2023-12-20T17:49:23;7.90;84.60
14884;DHT22;7534;50.762;7.000;2023-12-20T17:51:48;7.90;84.90
14884;DHT22;7534;50.762;7.000;2023-12-20T17:54:14;7.90;84.50
14884;DHT22;7534;50.762;7.000;2023-12-20T17:56:41;7.90;84.40
14884;DHT22;7534;50.762;7.000;2023-12-20T17:59:15;8.00;84.80
14884;DHT22;7534;50.762;7.000;2023-12-20T18:01:43;7.90;84.30
14884;DHT22;7534;50.762;7.000;2023-12-20T18:04:09;8.00;84.50
14884;DHT22;7534;50.762;7.000;2023-12-20T18:06:35;7.90;84.30
14884;DHT22;7534;50.762;7.000;2023-12-20T18:09:01;7.90;84.60
14884;DHT22;7534;50.762;7.000;2023-12-20T18:11:26;7.90;84.60
14884;DHT22;7534;50.762;7.000;2023-12-20T18:13:55;7.90;84.50
14884;DHT22;7534;50.762;7.000;2023-12-20T18:16:21;7.90;84.20
14884;DHT22;7534;50.762;7.000;2023-12-20T18:18:48;7.90;84.40
14884;DHT22;7534;50.762;7.000;2023-12-20T18:21:14;7.90;84.40
14884;DHT22;7534;50.762;7.000;2023-12-20T18:23:41;8.00;84.30
14884;DHT22;7534;50.762;7.000;2023-12-20T18:26:07;8.00;84.20
14884;DHT22;7534;50.762;7.000;2023-12-20T18:28:33;8.00;84.00
14884;DHT22;7534;50.762;7.000;2023-12-20T18:30:59;8.00;84.30
14884;DHT22;7534;50.762;7.000;2023-12-20T18:33:25;8.10;83.90
14884;DHT22;7534;50.762;7.000;2023-12-20T18:35:51;8.10;83.90
14884;DHT22;7534;50.762;7.000;2023-12-20T18:38:23;8.10;84.00
14884;DHT22;7534;50.762;7.000;2023-12-20T18:41:02;8.10;83.70
14884;DHT22;7534;50.762;7.000;2023-12-20T18:43:32;8.10;83.40
14884;DHT22;7534;50.762;7.000;2023-12-20T18:46:04;8.20;83.30
14884;DHT22;7534;50.762;7.000;2023-12-20T18:48:38;8.20;83.60
14884;DHT22;7534;50.762;7.000;2023-12-20T18:51:12;8.10;83.60
14884;DHT22;7534;50.762;7.000;2023-12-20T18:53:41;8.20;83.50
14884;DHT22;7534;50.762;7.000;2023-12-20T18:56:12;8.20;83.00
14884;DHT22;7534;50.762;7.000;2023-12-20T18:59:00;8.20;83.00
14884;DHT22;7534;50.762;7.000;2023-12-20T19:01:27;8.30;82.70
14884;DHT22;7534;50.762;7.000;2023-12-20T19:04:32;8.30;82.60
14884;DHT22;7534;50.762;7.000;2023-12-20T19:07:05;8.30;82.80
14884;DHT22;7534;50.762;7.000;2023-12-20T19:09:35;8.30;82.60
14884;DHT22;7534;50.762;7.000;2023-12-20T19:12:00;8.30;82.60
14884;DHT22;7534;50.762;7.000;2023-12-20T19:14:26;8.30;82.70
14884;DHT22;7534;50.762;7.000;2023-12-20T19:16:57;8.20;82.90
14884;DHT22;7534;50.762;7.000;2023-12-20T19:19:26;8.20;83.20
14884;DHT22;7534;50.762;7.000;2023-12-20T19:22:05;8.20;83.10
14884;DHT22;7534;50.762;7.000;2023-12-20T19:24:37;8.20;83.20
14884;DHT22;7534;50.762;7.000;2023-12-20T19:27:05;8.20;82.90
14884;DHT22;7534;50.762;7.000;2023-12-20T19:29:31;8.20;83.20
14884;DHT22;7534;50.762;7.000;2023-12-20T19:31:58;8.20;83.30
14884;DHT22;7534;50.762;7.000;2023-12-20T19:34:25;8.30;83.20
14884;DHT22;7534;50.762;7.000;2023-12-20T19:36:51;8.30;83.30
14884;DHT22;7534;50.762;7.000;2023-12-20T19:39:17;8.30;83.20
14884;DHT22;7534;50.762;7.000;2023-12-20T19:41:44;8.40;83.00
14884;DHT22;7534;50.762;7.000;2023-12-20T19:44:10;8.40;83.20
14884;DHT22;7534;50.762;7.000;2023-12-20T19:46:36;8.30;83.50
14884;DHT22;7534;50.762;7.000;2023-12-20T19:49:01;8.30;83.20
14884;DHT22;7534;50.762;7.000;2023-12-20T19:51:29;8.30;83.70
14884;DHT22;7534;50.762;7.000;2023-12-20T19:53:55;8.30;83.50
14884;DHT22;7534;50.762;7.000;2023-12-20T19:56:23;8.40;83.20
14884;DHT22;7534;50.762;7.000;2023-12-20T19:58:56;8.40;82.70
14884;DHT22;7534;50.762;7.000;2023-12-20T20:01:24;8.50;82.70
14884;DHT22;7534;50.762;7.000;2023-12-20T20:03:50;8.50;82.20
14884;DHT22;7534;50.762;7.000;2023-12-20T20:06:16;8.50;82.00
14884;DHT22;7534;50.762;7.000;2023-12-20T20:08:42;8.50;81.90
14884;DHT22;7534;50.762;7.000;2023-12-20T20:11:17;8.60;81.40
14884;DHT22;7534;50.762;7.000;2023-12-20T20:13:51;8.60;81.50
14884;DHT22;7534;50.762;7.000;2023-12-20T20:16:22;8.50;81.50
14884;DHT22;7534;50.762;7.000;2023-12-20T20:18:48;8.60;81.80
14884;DHT22;7534;50.762;7.000;2023-12-20T20:21:25;8.60;81.50
14884;DHT22;7534;50.762;7.000;2023-12-20T20:24:10;8.60;81.60
14884;DHT22;7534;50.762;7.000;2023-12-20T20:26:48;8.60;81.40
14884;DHT22;7534;50.762;7.000;2023-12-20T20:29:15;8.50;81.90
14884;DHT22;7534;50.762;7.000;2023-12-20T20:31:50;8.50;82.20
14884;DHT22;7534;50.762;7.000;2023-12-20T20:34:18;8.50;81.90
14884;DHT22;7534;50.762;7.000;2023-12-20T20:36:49;8.60;81.60
14884;DHT22;7534;50.762;7.000;2023-12-20T20:39:34;8.70;81.10
14884;DHT22;7534;50.762;7.000;2023-12-20T20:41:59;8.70;81.40
14884;DHT22;7534;50.762;7.000;2023-12-20T20:44:25;8.70;81.50
14884;DHT22;7534;50.762;7.000;2023-12-20T20:46:51;8.70;81.50
14884;DHT22;7534;50.762;7.000;2023-12-20T20:49:19;8.70;81.50
14884;DHT22;7534;50.762;7.000;2023-12-20T20:51:46;8.70;81.50
14884;DHT22;7534;50.762;7.000;2023-12-20T20:54:13;8.80;81.30
14884;DHT22;7534;50.762;7.000;2023-12-20T20:56:39;8.70;81.40
14884;DHT22;7534;50.762;7.000;2023-12-20T20:59:04;8.80;81.10
14884;DHT22;7534;50.762;7.000;2023-12-20T21:01:37;8.80;81.00
14884;DHT22;7534;50.762;7.000;2023-12-20T21:04:12;8.80;80.60
14884;DHT22;7534;50.762;7.000;2023-12-20T21:06:44;8.90;80.60
14884;DHT22;7534;50.762;7.000;2023-12-20T21:09:15;8.90;80.50
14884;DHT22;7534;50.762;7.000;2023-12-20T21:11:42;8.80;80.60
14884;DHT22;7534;50.762;7.000;2023-12-20T21:14:08;8.80;80.70
14884;DHT22;7534;50.762;7.000;2023-12-20T21:16:33;8.90;80.60
14884;DHT22;7534;50.762;7.000;2023-12-20T21:19:00;8.80;80.90
14884;DHT22;7534;50.762;7.000;2023-12-20T21:21:27;8.80;80.80
14884;DHT22;7534;50.762;7.000;2023-12-20T21:23:54;8.90;80.80
14884;DHT22;7534;50.762;7.000;2023-12-20T21:26:21;8.90;80.90
14884;DHT22;7534;50.762;7.000;2023-12-20T21:28:50;8.90;80.90
14884;DHT22;7534;50.762;7.000;2023-12-20T21:31:16;8.90;81.10
14884;DHT22;7534;50.762;7.000;2023-12-20T21:33:42;8.90;81.10
14884;DHT22;7534;50.762;7.000;2023-12-20T21:36:08;8.90;81.50
14884;DHT22;7534;50.762;7.000;2023-12-20T21:38:37;9.00;81.20
14884;DHT22;7534;50.762;7.000;2023-12-20T21:41:05;9.00;81.40
14884;DHT22;7534;50.762;7.000;2023-12-20T21:43:33;9.00;81.40
14884;DHT22;7534;50.762;7.000;2023-12-20T21:46:00;9.00;81.70
14884;DHT22;7534;50.762;7.000;2023-12-20T21:48:28;9.00;81.90
14884;DHT22;7534;50.762;7.000;2023-12-20T21:50:55;9.00;82.00
14884;DHT22;7534;50.762;7.000;2023-12-20T21:53:22;9.00;82.30
14884;DHT22;7534;50.762;7.000;2023-12-20T21:55:48;9.10;82.40
14884;DHT22;7534;50.762;7.000;2023-12-20T21:58:15;9.00;82.90
14884;DHT22;7534;50.762;7.000;2023-12-20T22:00:40;9.00;83.10
14884;DHT22;7534;50.762;7.000;2023-12-20T22:03:06;9.00;83.50
14884;DHT22;7534;50.762;7.000;2023-12-20T22:05:35;9.00;83.10
14884;DHT22;7534;50.762;7.000;2023-12-20T22:08:03;9.00;83.20
14884;DHT22;7534;50.762;7.000;2023-12-20T22:10:34;9.00;83.20
14884;DHT22;7534;50.762;7.000;2023-12-20T22:13:02;9.00;83.70
14884;DHT22;7534;50.762;7.000;2023-12-20T22:15:28;8.90;84.00
14884;DHT22;7534;50.762;7.000;2023-12-20T22:17:56;8.90;84.20
14884;DHT22;7534;50.762;7.000;2023-12-20T22:20:23;8.90;84.20
14884;DHT22;7534;50.762;7.000;2023-12-20T22:22:54;8.80;84.50
14884;DHT22;7534;50.762;7.000;2023-12-20T22:25:20;8.80;84.60
14884;DHT22;7534;50.762;7.000;2023-12-20T22:27:46;8.90;84.40
14884;DHT22;7534;50.762;7.000;2023-12-20T22:30:12;8.90;84.30
14884;DHT22;7534;50.762;7.000;2023-12-20T22:32:40;8.90;83.80
14884;DHT22;7534;50.762;7.000;2023-12-20T22:35:06;9.00;83.80
14884;DHT22;7534;50.762;7.000;2023-12-20T22:37:32;9.00;83.80
14884;DHT22;7534;50.762;7.000;2023-12-20T22:39:58;9.00;83.40
14884;DHT22;7534;50.762;7.000;2023-12-20T22:42:24;9.10;83.60
14884;DHT22;7534;50.762;7.000;2023-12-20T22:44:50;9.00;83.80
14884;DHT22;7534;50.762;7.000;2023-12-20T22:47:22;9.00;83.90
14884;DHT22;7534;50.762;7.000;2023-12-20T22:49:50;9.10;83.70
14884;DHT22;7534;50.762;7.000;2023-12-20T22:52:18;9.10;84.30